Time;durP1;ratioP1;P1;durP2;ratioP2;P2;SDS_P1;SDS_P2;PMS_P1;PMS_P2;Temp;Humidity;BMP_temperature;BMP_pressure;BME280_temperature;BME280_humidity;BME280_pressure;Samples;Min_cycle;Max_cycle;Signal;HPM_P1;HPM_P2
2022/12/01 00:00:53;;;;;;;104.38;58.40;;;5.80;99.90;;;;;;5097955;28;20078;-78
2022/12/01 00:03:19;;;;;;;101.63;59.08;;;5.80;99.90;;;;;;5082104;28;20567;-77
2022/12/01 00:05:45;;;;;;;107.00;59.72;;;5.80;99.90;;;;;;5097824;28;20118;-78
2022/12/01 00:08:11;;;;;;;97.22;57.97;;;5.80;99.90;;;;;;5081055;28;20126;-78
2022/12/01 00:10:37;;;;;;;96.72;58.08;;;5.80;99.90;;;;;;5099752;28;20028;-78
2022/12/01 00:13:05;;;;;;;102.55;59.08;;;5.90;99.90;;;;;;5099069;28;20054;-78
2022/12/01 00:15:33;;;;;;;106.88;60.17;;;5.80;99.90;;;;;;5096108;28;20031;-78
2022/12/01 00:18:00;;;;;;;101.38;60.22;;;5.80;99.90;;;;;;5080679;28;20460;-77
2022/12/01 00:20:26;;;;;;;100.60;59.35;;;5.80;99.90;;;;;;5081742;28;20128;-77
2022/12/01 00:22:52;;;;;;;102.47;60.25;;;5.80;99.90;;;;;;5081099;28;20047;-78
2022/12/01 00:25:19;;;;;;;106.10;60.03;;;5.80;99.90;;;;;;5091949;28;20051;-77
2022/12/01 00:27:49;;;;;;;107.43;60.85;;;5.80;99.90;;;;;;5084239;27;20736;-78
2022/12/01 00:30:16;;;;;;;99.72;58.08;;;5.80;99.90;;;;;;5098889;28;20075;-78
2022/12/01 00:32:42;;;;;;;102.43;59.03;;;5.80;99.90;;;;;;5080906;28;20039;-78
2022/12/01 00:35:08;;;;;;;101.28;59.38;;;5.80;99.90;;;;;;5094259;28;20448;-78
2022/12/01 00:37:34;;;;;;;103.68;60.15;;;5.80;99.90;;;;;;5065916;28;20130;-78
2022/12/01 00:40:00;;;;;;;100.50;59.20;;;5.80;99.90;;;;;;5098035;28;20979;-78
2022/12/01 00:42:27;;;;;;;100.03;60.00;;;5.80;99.90;;;;;;5080591;28;20043;-78
2022/12/01 00:44:53;;;;;;;100.10;58.88;;;5.80;99.90;;;;;;5080516;28;20047;-78
2022/12/01 00:47:19;;;;;;;108.22;60.00;;;5.80;99.90;;;;;;5096748;27;20842;-78
2022/12/01 00:49:45;;;;;;;100.95;59.78;;;5.80;99.90;;;;;;5095977;28;20048;-78
2022/12/01 00:52:16;;;;;;;99.28;58.53;;;5.80;99.90;;;;;;5096622;27;20404;-78
2022/12/01 00:54:41;;;;;;;98.05;56.78;;;5.80;99.90;;;;;;5097174;28;20157;-78
2022/12/01 00:57:08;;;;;;;106.55;61.13;;;5.80;99.90;;;;;;5094802;28;20138;-78
2022/12/01 00:59:34;;;;;;;103.45;61.30;;;5.70;99.90;;;;;;5097659;28;20101;-78
2022/12/01 01:02:01;;;;;;;99.95;58.65;;;5.80;99.90;;;;;;5080166;28;20047;-78
2022/12/01 01:04:31;;;;;;;95.35;57.83;;;5.80;99.90;;;;;;5086850;28;20109;-77
2022/12/01 01:06:57;;;;;;;98.45;59.88;;;5.80;99.90;;;;;;5078098;28;20589;-78
2022/12/01 01:09:24;;;;;;;93.90;56.28;;;5.80;99.90;;;;;;5095264;28;20067;-78
2022/12/01 01:11:51;;;;;;;98.85;58.67;;;5.80;99.90;;;;;;5077846;28;20054;-77
2022/12/01 01:14:17;;;;;;;96.95;58.83;;;5.80;99.90;;;;;;5077960;28;20044;-78
2022/12/01 01:16:42;;;;;;;98.85;57.55;;;5.80;99.90;;;;;;5092966;28;20058;-78
2022/12/01 01:19:08;;;;;;;97.28;58.17;;;5.80;99.90;;;;;;5071814;28;20836;-77
2022/12/01 01:21:34;;;;;;;95.32;56.35;;;5.70;99.90;;;;;;5077941;28;20398;-78
2022/12/01 01:24:00;;;;;;;89.60;56.05;;;5.80;99.90;;;;;;5095562;28;20047;-78
2022/12/01 01:26:36;;;;;;;92.88;57.20;;;5.70;99.90;;;;;;5092335;28;21683;-77
2022/12/01 01:29:06;;;;;;;85.93;54.08;;;5.80;99.90;;;;;;5074708;28;20062;-77
2022/12/01 01:31:32;;;;;;;94.28;57.90;;;5.70;99.90;;;;;;5093169;28;20059;-76
2022/12/01 01:33:58;;;;;;;86.60;54.63;;;5.80;99.90;;;;;;5090238;28;20052;-77
2022/12/01 01:36:28;;;;;;;95.25;57.63;;;5.80;99.90;;;;;;5089644;28;20056;-77
2022/12/01 01:38:54;;;;;;;90.22;56.70;;;5.70;99.90;;;;;;5074680;28;20055;-76
2022/12/01 01:41:21;;;;;;;92.47;58.58;;;5.70;99.90;;;;;;5090921;28;20052;-76
2022/12/01 01:44:00;;;;;;;90.45;57.00;;;5.80;99.90;;;;;;5083340;28;20047;-76
2022/12/01 01:46:33;;;;;;;93.30;57.78;;;5.70;99.90;;;;;;5093558;28;20039;-76
2022/12/01 01:49:05;;;;;;;89.82;56.10;;;5.70;99.90;;;;;;5089029;28;20060;-76
2022/12/01 01:51:48;;;;;;;85.75;55.72;;;5.80;99.90;;;;;;5099437;27;20055;-79
2022/12/01 01:54:30;;;;;;;97.05;58.13;;;5.80;99.90;;;;;;5074404;28;20059;-76
2022/12/01 01:56:59;;;;;;;93.43;58.30;;;5.70;99.90;;;;;;5075217;28;20052;-76
2022/12/01 01:59:33;;;;;;;91.25;57.00;;;5.70;99.90;;;;;;5074338;28;20047;-76
2022/12/01 02:02:04;;;;;;;93.18;57.63;;;5.70;99.90;;;;;;5076285;28;20140;-78
2022/12/01 02:04:37;;;;;;;87.97;57.30;;;5.70;99.90;;;;;;5093159;28;20138;-76
2022/12/01 02:07:03;;;;;;;92.93;57.53;;;5.70;99.90;;;;;;5075415;28;20040;-76
2022/12/01 02:09:29;;;;;;;87.88;55.63;;;5.70;99.90;;;;;;5071405;28;20039;-77
2022/12/01 02:12:23;;;;;;;91.90;58.88;;;5.80;99.90;;;;;;5068191;28;20127;-76
2022/12/01 02:15:14;;;;;;;89.80;57.00;;;5.70;99.90;;;;;;5103969;27;20206;-77
2022/12/01 02:17:47;;;;;;;90.80;57.88;;;5.80;99.90;;;;;;5071775;28;20036;-76
2022/12/01 02:21:04;;;;;;;98.40;60.80;;;5.70;99.90;;;;;;5095228;28;20042;-77
2022/12/01 02:23:48;;;;;;;92.10;58.20;;;5.70;99.90;;;;;;5059693;28;20502;-77
2022/12/01 02:26:51;;;;;;;88.53;56.42;;;5.70;99.90;;;;;;5078072;28;20055;-76
2022/12/01 02:29:26;;;;;;;87.85;57.10;;;5.70;99.90;;;;;;5085092;28;20138;-76
2022/12/01 02:32:21;;;;;;;96.60;60.05;;;5.70;99.90;;;;;;5085450;28;20590;-76
2022/12/01 02:35:13;;;;;;;89.10;57.30;;;5.70;99.90;;;;;;5118077;27;20055;-77
2022/12/01 02:37:54;;;;;;;93.90;60.05;;;5.70;99.90;;;;;;5083828;28;20137;-77
2022/12/01 02:40:32;;;;;;;90.47;58.58;;;5.70;99.90;;;;;;5076849;28;20047;-77
2022/12/01 02:43:31;;;;;;;88.95;57.65;;;5.70;99.90;;;;;;5075778;28;20082;-77
2022/12/01 02:46:08;;;;;;;95.55;60.50;;;5.70;99.90;;;;;;5102395;27;20056;-78
2022/12/01 02:48:37;;;;;;;95.30;60.88;;;5.70;99.90;;;;;;5092239;28;20048;-77
2022/12/01 02:51:11;;;;;;;103.60;64.57;;;5.70;99.90;;;;;;5106429;27;20441;-78
2022/12/01 02:53:37;;;;;;;94.70;61.00;;;5.70;99.90;;;;;;5101048;28;20058;-78
2022/12/01 02:56:08;;;;;;;96.32;62.33;;;5.70;99.90;;;;;;5058509;28;20118;-78
2022/12/01 02:58:34;;;;;;;93.25;61.13;;;5.70;99.90;;;;;;5078795;28;20446;-78
2022/12/01 03:01:13;;;;;;;104.78;62.92;;;5.70;99.90;;;;;;5072247;28;20043;-78
2022/12/01 03:04:00;;;;;;;91.38;60.92;;;5.70;99.90;;;;;;5076324;28;20492;-78
2022/12/01 03:06:29;;;;;;;92.32;58.80;;;5.70;99.90;;;;;;5106766;28;20036;-78
2022/12/01 03:09:01;;;;;;;97.93;62.95;;;5.70;99.90;;;;;;5077044;28;20044;-78
2022/12/01 03:11:42;;;;;;;94.15;59.28;;;5.70;99.90;;;;;;5094435;28;20040;-77
2022/12/01 03:14:30;;;;;;;102.55;63.30;;;5.70;99.90;;;;;;5096674;28;20584;-78
2022/12/01 03:17:02;;;;;;;97.28;60.47;;;5.70;99.90;;;;;;5093169;28;20071;-78
2022/12/01 03:19:44;;;;;;;100.47;62.60;;;5.70;99.90;;;;;;5100769;28;20130;-77
2022/12/01 03:22:27;;;;;;;99.00;63.00;;;5.70;99.90;;;;;;5099523;28;20047;-78
2022/12/01 03:24:55;;;;;;;96.97;61.03;;;5.70;99.90;;;;;;5091983;27;20055;-77
2022/12/01 03:27:26;;;;;;;94.60;61.22;;;5.60;99.90;;;;;;5105811;28;20067;-78
2022/12/01 03:29:55;;;;;;;99.68;61.05;;;5.60;99.90;;;;;;5083869;28;21243;-78
2022/12/01 03:32:47;;;;;;;104.85;63.58;;;5.60;99.90;;;;;;5087389;28;20049;-78
2022/12/01 03:35:22;;;;;;;99.85;62.10;;;5.70;99.90;;;;;;5091073;28;20060;-78
2022/12/01 03:37:56;;;;;;;101.47;62.80;;;5.70;99.90;;;;;;5088273;28;20051;-78
2022/12/01 03:40:26;;;;;;;94.07;59.50;;;5.60;99.90;;;;;;5095133;27;20036;-78
2022/12/01 03:43:02;;;;;;;99.80;62.35;;;5.60;99.90;;;;;;5092608;28;20047;-78
2022/12/01 03:45:49;;;;;;;100.63;62.88;;;5.70;99.90;;;;;;5096165;28;20052;-78
2022/12/01 03:48:16;;;;;;;94.57;61.63;;;5.60;99.90;;;;;;5086160;28;20375;-78
2022/12/01 03:50:53;;;;;;;101.50;64.15;;;5.60;99.90;;;;;;5099937;28;20047;-78
2022/12/01 03:53:26;;;;;;;98.38;62.83;;;5.60;99.90;;;;;;5102994;27;20075;-78
2022/12/01 03:56:01;;;;;;;103.43;63.80;;;5.60;99.90;;;;;;5085955;28;20397;-78
2022/12/01 03:58:41;;;;;;;106.35;63.78;;;5.60;99.90;;;;;;5096615;28;20083;-77
2022/12/01 04:01:07;;;;;;;94.43;61.33;;;5.60;99.90;;;;;;5083427;28;20051;-78
2022/12/01 04:03:33;;;;;;;103.30;64.40;;;5.60;99.90;;;;;;5073338;28;20490;-78
2022/12/01 04:05:59;;;;;;;104.50;63.88;;;5.60;99.90;;;;;;5102764;27;20119;-78
2022/12/01 04:08:25;;;;;;;104.68;65.93;;;5.60;99.90;;;;;;5086302;28;20766;-78
2022/12/01 04:10:51;;;;;;;102.13;64.40;;;5.60;99.90;;;;;;5091507;28;20059;-78
2022/12/01 04:13:24;;;;;;;105.53;63.47;;;5.60;99.90;;;;;;5089907;28;20079;-78
2022/12/01 04:15:52;;;;;;;102.45;64.60;;;5.70;99.90;;;;;;5065940;28;20054;-78
2022/12/01 04:18:18;;;;;;;99.72;63.47;;;5.60;99.90;;;;;;5082193;28;20070;-78
2022/12/01 04:20:45;;;;;;;108.07;63.00;;;5.60;99.90;;;;;;5094127;28;20035;-78
2022/12/01 04:23:58;;;;;;;101.72;63.88;;;5.60;99.90;;;;;;5101280;27;20055;-78
2022/12/01 04:25:59;;;;;;;102.78;63.42;;;5.60;99.90;;;;;;5087098;28;20052;-78
2022/12/01 04:28:25;;;;;;;99.35;60.42;;;5.60;99.90;;;;;;5072481;28;20083;-78
2022/12/01 04:30:51;;;;;;;102.65;62.33;;;5.60;99.90;;;;;;5098051;28;20044;-78
2022/12/01 04:33:17;;;;;;;105.88;62.88;;;5.60;99.90;;;;;;5082033;28;20048;-78
2022/12/01 04:35:42;;;;;;;101.90;65.72;;;5.60;99.90;;;;;;5086786;28;20063;-77
2022/12/01 04:38:08;;;;;;;103.70;63.88;;;5.60;99.90;;;;;;5093872;28;20044;-78
2022/12/01 04:40:34;;;;;;;102.40;63.70;;;5.60;99.90;;;;;;5112077;27;20039;-78
2022/12/01 04:43:00;;;;;;;102.05;63.20;;;5.60;99.90;;;;;;5063917;28;20426;-76
2022/12/01 04:45:25;;;;;;;108.68;65.88;;;5.60;99.90;;;;;;5072253;28;20046;-76
2022/12/01 04:47:51;;;;;;;105.15;64.63;;;5.50;99.90;;;;;;5078996;28;20044;-77
2022/12/01 04:50:17;;;;;;;111.05;65.25;;;5.60;99.90;;;;;;5060867;28;20055;-77
2022/12/01 04:52:43;;;;;;;106.32;65.40;;;5.60;99.90;;;;;;5084288;28;20092;-76
2022/12/01 04:55:09;;;;;;;111.32;67.47;;;5.60;99.90;;;;;;5064888;28;20044;-76
2022/12/01 04:57:35;;;;;;;108.88;67.07;;;5.60;99.90;;;;;;5078373;28;20135;-76
2022/12/01 05:00:01;;;;;;;108.70;65.60;;;5.50;99.90;;;;;;5092465;27;20208;-76
2022/12/01 05:02:27;;;;;;;113.00;67.35;;;5.60;99.90;;;;;;5077452;27;20047;-76
2022/12/01 05:04:52;;;;;;;110.55;66.60;;;5.50;99.90;;;;;;5064536;28;20331;-76
2022/12/01 05:07:18;;;;;;;112.18;68.25;;;5.60;99.90;;;;;;5105688;27;20080;-78
2022/12/01 05:09:44;;;;;;;110.97;67.00;;;5.50;99.90;;;;;;5051403;28;20047;-76
2022/12/01 05:12:10;;;;;;;110.53;67.47;;;5.50;99.90;;;;;;5058942;28;20109;-76
2022/12/01 05:14:36;;;;;;;121.45;70.85;;;5.50;99.90;;;;;;5085231;28;20044;-77
2022/12/01 05:17:01;;;;;;;117.72;68.15;;;5.50;99.90;;;;;;5093710;28;20048;-76
2022/12/01 05:22:11;;;;;;;129.05;72.82;;;5.60;99.90;;;;;;5078635;28;20079;-76
2022/12/01 05:24:37;;;;;;;113.00;70.18;;;5.50;99.90;;;;;;5091799;28;20082;-76
2022/12/01 05:27:03;;;;;;;122.13;71.20;;;5.50;99.90;;;;;;5117627;27;20057;-77
2022/12/01 05:29:31;;;;;;;118.65;69.35;;;5.60;99.90;;;;;;5100792;28;20130;-76
2022/12/01 05:31:57;;;;;;;119.55;68.88;;;5.60;99.90;;;;;;5083926;28;20048;-75
2022/12/01 05:34:23;;;;;;;123.35;70.30;;;5.60;99.90;;;;;;5078840;28;20047;-76
2022/12/01 05:36:49;;;;;;;120.07;70.15;;;5.60;99.90;;;;;;5096395;28;20071;-76
2022/12/01 05:39:14;;;;;;;129.68;72.32;;;5.60;99.90;;;;;;5075814;28;20128;-76
2022/12/01 05:41:40;;;;;;;120.05;70.10;;;5.60;99.90;;;;;;5093241;28;20065;-77
2022/12/01 05:44:06;;;;;;;122.78;70.03;;;5.60;99.90;;;;;;5068207;28;20047;-77
2022/12/01 05:46:32;;;;;;;121.47;70.65;;;5.60;99.90;;;;;;5070877;28;20461;-76
2022/12/01 05:48:57;;;;;;;118.18;67.22;;;5.60;99.90;;;;;;5096296;28;20127;-76
2022/12/01 05:51:23;;;;;;;121.18;70.40;;;5.60;99.90;;;;;;5097277;28;20050;-76
2022/12/01 05:53:49;;;;;;;118.38;69.55;;;5.60;99.90;;;;;;5097409;28;20478;-76
2022/12/01 05:56:15;;;;;;;118.70;69.13;;;5.60;99.90;;;;;;5086076;28;20385;-76
2022/12/01 05:58:41;;;;;;;114.43;67.50;;;5.60;99.90;;;;;;5065832;28;20052;-76
2022/12/01 06:01:07;;;;;;;118.60;69.22;;;5.60;99.90;;;;;;5099175;28;20055;-76
2022/12/01 06:03:33;;;;;;;123.88;70.78;;;5.60;99.90;;;;;;5078498;28;20126;-76
2022/12/01 06:05:59;;;;;;;121.32;69.90;;;5.60;99.90;;;;;;5070153;28;20151;-77
2022/12/01 06:08:25;;;;;;;112.22;65.93;;;5.60;99.90;;;;;;5094506;28;20039;-77
2022/12/01 06:10:51;;;;;;;115.97;67.20;;;5.60;99.90;;;;;;5088939;28;20747;-77
2022/12/01 06:13:17;;;;;;;122.03;69.18;;;5.60;99.90;;;;;;5063940;28;20051;-76
2022/12/01 06:15:42;;;;;;;122.55;70.28;;;5.60;99.90;;;;;;5090989;28;20670;-77
2022/12/01 06:18:11;;;;;;;130.15;71.10;;;5.60;99.90;;;;;;5077609;28;20100;-77
2022/12/01 06:20:37;;;;;;;124.60;70.07;;;5.60;99.90;;;;;;5077921;28;20028;-77
2022/12/01 06:23:03;;;;;;;131.30;70.00;;;5.60;99.90;;;;;;5098613;28;20074;-77
2022/12/01 06:25:29;;;;;;;126.10;71.30;;;5.60;99.90;;;;;;5088705;28;20055;-77
2022/12/01 06:27:57;;;;;;;122.45;72.18;;;5.60;99.90;;;;;;5092766;28;20525;-77
2022/12/01 06:30:25;;;;;;;120.32;69.80;;;5.60;99.90;;;;;;5080336;28;20055;-77
2022/12/01 06:32:51;;;;;;;116.80;67.43;;;5.60;99.90;;;;;;5085704;28;20091;-77
2022/12/01 06:35:17;;;;;;;113.38;68.18;;;5.60;99.90;;;;;;5076155;28;20048;-75
2022/12/01 06:37:43;;;;;;;124.57;70.18;;;5.60;99.90;;;;;;5075993;28;20036;-75
2022/12/01 06:40:09;;;;;;;109.68;67.38;;;5.60;99.90;;;;;;5060068;28;20044;-77
2022/12/01 06:42:35;;;;;;;121.13;68.05;;;5.60;99.90;;;;;;5078069;28;20039;-77
2022/12/01 06:45:01;;;;;;;132.65;70.20;;;5.60;99.90;;;;;;5078596;28;20047;-77
2022/12/01 06:47:27;;;;;;;119.93;65.43;;;5.60;99.90;;;;;;5075467;28;20074;-77
2022/12/01 06:49:53;;;;;;;146.07;74.55;;;5.60;99.90;;;;;;5064639;28;20068;-77
2022/12/01 06:52:18;;;;;;;130.35;69.55;;;5.60;99.90;;;;;;5077491;28;20441;-79
2022/12/01 06:54:44;;;;;;;124.50;69.88;;;5.50;99.90;;;;;;5094701;28;20048;-75
2022/12/01 06:57:10;;;;;;;151.55;75.57;;;5.50;99.90;;;;;;5094574;28;20121;-75
2022/12/01 06:59:36;;;;;;;155.48;78.50;;;5.50;99.90;;;;;;5090462;28;20313;-75
2022/12/01 07:02:02;;;;;;;157.10;76.05;;;5.50;99.90;;;;;;5098281;28;20040;-75
2022/12/01 07:04:31;;;;;;;134.90;74.57;;;5.60;99.90;;;;;;5098104;28;20075;-75
2022/12/01 07:06:57;;;;;;;148.90;76.35;;;5.50;99.90;;;;;;5099594;28;20047;-75
2022/12/01 07:09:23;;;;;;;124.57;71.18;;;5.50;99.90;;;;;;5104552;28;20125;-75
2022/12/01 07:11:49;;;;;;;121.03;69.72;;;5.50;99.90;;;;;;5098840;28;20036;-75
2022/12/01 07:14:21;;;;;;;126.60;73.18;;;5.50;99.90;;;;;;5104975;28;20047;-75
2022/12/01 07:16:47;;;;;;;138.25;74.32;;;5.50;99.90;;;;;;5101551;28;20118;-75
2022/12/01 07:19:12;;;;;;;126.43;72.45;;;5.50;99.90;;;;;;5095932;28;20070;-75
2022/12/01 07:21:38;;;;;;;124.75;73.32;;;5.60;99.90;;;;;;5064005;28;20054;-76
2022/12/01 07:24:05;;;;;;;128.80;71.72;;;5.60;99.90;;;;;;5104907;28;20406;-80
2022/12/01 07:26:31;;;;;;;118.68;69.28;;;5.60;99.90;;;;;;5105082;27;20040;-81
2022/12/01 07:28:56;;;;;;;141.10;71.78;;;5.60;99.90;;;;;;5070700;28;20104;-81
2022/12/01 07:31:22;;;;;;;110.45;65.38;;;5.60;99.90;;;;;;5085517;28;20036;-80
2022/12/01 07:33:48;;;;;;;120.63;69.68;;;5.60;99.90;;;;;;5085417;28;20313;-81
2022/12/01 07:36:14;;;;;;;121.07;70.15;;;5.60;99.90;;;;;;5083110;28;20070;-80
2022/12/01 07:38:40;;;;;;;108.43;64.78;;;5.60;99.90;;;;;;5079907;28;20036;-80
2022/12/01 07:41:09;;;;;;;130.48;70.20;;;5.60;99.90;;;;;;5097513;28;20040;-81
2022/12/01 07:43:35;;;;;;;123.65;69.15;;;5.60;99.90;;;;;;5101883;27;20046;-82
2022/12/01 07:46:06;;;;;;;132.65;72.60;;;5.60;99.90;;;;;;5098726;28;20061;-82
2022/12/01 07:48:32;;;;;;;128.02;68.60;;;5.60;99.90;;;;;;5085545;28;20048;-82
2022/12/01 07:50:57;;;;;;;138.80;71.55;;;5.60;99.90;;;;;;5064360;28;20108;-82
2022/12/01 07:53:23;;;;;;;145.43;77.47;;;5.70;99.90;;;;;;5082517;28;20066;-82
2022/12/01 07:55:49;;;;;;;116.72;68.90;;;5.60;99.90;;;;;;5095876;28;20116;-82
2022/12/01 07:58:16;;;;;;;142.55;77.35;;;5.60;99.90;;;;;;5082913;28;20138;-82
2022/12/01 08:00:41;;;;;;;120.10;68.32;;;5.60;99.90;;;;;;5100376;28;20568;-82
2022/12/01 08:03:07;;;;;;;143.80;76.68;;;5.60;99.90;;;;;;5068529;28;20043;-82
2022/12/01 08:05:33;;;;;;;131.82;73.18;;;5.70;99.90;;;;;;5096783;28;20051;-82
2022/12/01 08:07:59;;;;;;;136.27;72.72;;;5.60;99.90;;;;;;5070656;28;20075;-82
2022/12/01 08:10:25;;;;;;;130.88;73.25;;;5.70;99.90;;;;;;5084176;28;20054;-81
2022/12/01 08:12:51;;;;;;;142.40;74.15;;;5.70;99.90;;;;;;5079465;28;20477;-82
2022/12/01 08:15:16;;;;;;;149.05;78.78;;;5.70;99.90;;;;;;5096362;28;20056;-82
2022/12/01 08:17:42;;;;;;;129.23;73.15;;;5.70;99.90;;;;;;5082709;28;20118;-81
2022/12/01 08:20:08;;;;;;;129.52;71.00;;;5.70;99.90;;;;;;5083165;28;20444;-82
2022/12/01 08:22:34;;;;;;;135.27;73.55;;;5.70;99.90;;;;;;5100930;28;20043;-81
2022/12/01 08:25:00;;;;;;;122.25;71.20;;;5.60;99.90;;;;;;5085864;28;20089;-81
2022/12/01 08:27:25;;;;;;;128.70;70.63;;;5.70;99.90;;;;;;5067226;28;20062;-82
2022/12/01 08:29:51;;;;;;;129.85;70.10;;;5.70;99.90;;;;;;5067389;28;20140;-82
2022/12/01 08:32:17;;;;;;;120.55;66.03;;;5.70;99.90;;;;;;5086905;28;20063;-82
2022/12/01 08:34:43;;;;;;;166.32;79.93;;;5.60;99.90;;;;;;5064731;28;20093;-81
2022/12/01 08:37:09;;;;;;;165.25;78.85;;;5.50;99.90;;;;;;5099997;28;20039;-82
2022/12/01 08:39:34;;;;;;;174.32;79.40;;;5.40;99.90;;;;;;5083168;28;20055;-81
2022/12/01 08:42:00;;;;;;;211.77;92.43;;;5.50;99.90;;;;;;5069642;28;20035;-81
2022/12/01 08:44:29;;;;;;;202.30;89.25;;;5.40;99.90;;;;;;5079495;28;20046;-82
2022/12/01 08:46:55;;;;;;;230.07;92.10;;;5.40;99.90;;;;;;5084311;28;20115;-82
2022/12/01 08:49:21;;;;;;;221.77;100.22;;;5.40;99.90;;;;;;5068359;28;20134;-82
2022/12/01 08:51:47;;;;;;;164.43;88.50;;;5.30;99.90;;;;;;5099273;28;20054;-82
2022/12/01 08:54:13;;;;;;;218.75;95.38;;;5.30;99.90;;;;;;5101065;28;20418;-82
2022/12/01 08:56:42;;;;;;;174.10;81.15;;;5.40;99.90;;;;;;5101699;28;20418;-82
2022/12/01 08:59:08;;;;;;;128.27;71.88;;;5.30;99.90;;;;;;5100075;28;20101;-82
2022/12/01 09:01:50;;;;;;;178.85;83.70;;;5.30;99.90;;;;;;5085405;28;20486;-82
2022/12/01 09:04:17;;;;;;;130.75;69.25;;;5.30;99.90;;;;;;5083807;28;20047;-81
2022/12/01 09:06:45;;;;;;;177.05;84.85;;;5.30;99.90;;;;;;5086927;28;20508;-82
2022/12/01 09:09:15;;;;;;;166.75;79.43;;;5.30;99.90;;;;;;5085539;28;20146;-81
2022/12/01 09:11:42;;;;;;;168.27;82.57;;;5.30;99.90;;;;;;5099907;28;20048;-82
2022/12/01 09:14:08;;;;;;;155.07;77.57;;;5.30;99.90;;;;;;5097272;28;20570;-81
2022/12/01 09:16:35;;;;;;;157.15;77.15;;;5.20;99.90;;;;;;5082328;27;20055;-82
2022/12/01 09:19:01;;;;;;;133.35;73.57;;;5.40;99.90;;;;;;5079511;28;20036;-81
2022/12/01 09:21:29;;;;;;;178.95;82.10;;;5.30;99.90;;;;;;5097733;28;20039;-82
2022/12/01 09:23:55;;;;;;;135.48;71.93;;;5.30;99.90;;;;;;5100851;28;20513;-82
2022/12/01 09:26:22;;;;;;;180.00;83.00;;;5.30;99.90;;;;;;5098419;27;20047;-82
2022/12/01 09:28:52;;;;;;;162.15;77.93;;;5.20;99.90;;;;;;5084091;28;20075;-82
2022/12/01 09:31:19;;;;;;;171.45;84.90;;;5.20;99.90;;;;;;5080758;28;20398;-82
2022/12/01 09:33:45;;;;;;;173.60;85.20;;;5.20;99.90;;;;;;5101333;28;20043;-82
2022/12/01 09:36:12;;;;;;;168.45;81.22;;;5.20;99.90;;;;;;5097568;28;20047;-82
2022/12/01 09:38:38;;;;;;;176.98;82.38;;;5.20;99.90;;;;;;5101556;28;20059;-79
2022/12/01 09:41:10;;;;;;;141.88;75.80;;;5.20;99.90;;;;;;5099239;28;20047;-81
2022/12/01 09:43:42;;;;;;;141.25;75.82;;;5.20;99.90;;;;;;5099279;28;20044;-81
2022/12/01 09:46:19;;;;;;;136.15;71.97;;;5.10;99.90;;;;;;5099743;28;20122;-80
2022/12/01 09:48:46;;;;;;;131.63;68.13;;;5.10;99.90;;;;;;5117516;27;20120;-80
2022/12/01 09:51:21;;;;;;;133.13;70.93;;;5.10;99.90;;;;;;5097782;28;20059;-81
2022/12/01 09:53:55;;;;;;;136.25;71.18;;;5.00;99.90;;;;;;5099951;28;20104;-81
2022/12/01 09:56:23;;;;;;;137.63;69.95;;;5.00;99.90;;;;;;5096547;28;20075;-81
2022/12/01 09:58:55;;;;;;;133.82;72.05;;;5.00;99.90;;;;;;5101574;28;20067;-81
2022/12/01 10:01:29;;;;;;;140.75;72.35;;;5.00;99.90;;;;;;5083382;28;20062;-80
2022/12/01 10:03:58;;;;;;;148.88;74.22;;;5.00;99.90;;;;;;5080183;28;20134;-80
2022/12/01 10:06:36;;;;;;;174.37;80.70;;;5.00;99.90;;;;;;5098116;28;20100;-81
2022/12/01 10:09:24;;;;;;;143.15;74.72;;;5.00;99.90;;;;;;5112589;27;20282;-80
2022/12/01 10:11:53;;;;;;;135.50;72.03;;;5.10;99.90;;;;;;5097603;28;20051;-80
2022/12/01 10:14:20;;;;;;;145.13;74.50;;;5.10;99.90;;;;;;5103198;28;20082;-80
2022/12/01 10:16:49;;;;;;;137.30;73.57;;;5.10;99.90;;;;;;5102457;28;20114;-81
2022/12/01 10:19:35;;;;;;;144.43;78.68;;;5.20;99.90;;;;;;5086175;28;20051;-80
2022/12/01 10:22:13;;;;;;;145.20;79.00;;;5.20;99.90;;;;;;5103309;28;20433;-81
2022/12/01 10:24:42;;;;;;;130.82;73.47;;;5.30;99.90;;;;;;5102541;27;20047;-81
2022/12/01 10:27:14;;;;;;;134.55;76.25;;;5.40;99.90;;;;;;5085492;28;20039;-81
2022/12/01 10:29:50;;;;;;;137.48;75.95;;;5.40;99.90;;;;;;5088290;28;20513;-81
2022/12/01 10:32:34;;;;;;;118.85;70.25;;;5.50;99.90;;;;;;5101042;28;20726;-81
2022/12/01 10:35:00;;;;;;;124.32;71.32;;;5.60;99.90;;;;;;5099457;28;20510;-81
2022/12/01 10:37:29;;;;;;;103.65;63.97;;;5.70;99.90;;;;;;5087369;28;20035;-81
2022/12/01 10:39:56;;;;;;;113.63;66.80;;;5.70;99.90;;;;;;5084888;28;20096;-81
2022/12/01 10:42:42;;;;;;;103.78;63.53;;;5.80;99.90;;;;;;5084509;28;20058;-81
2022/12/01 10:45:26;;;;;;;106.35;62.88;;;5.90;99.90;;;;;;5104930;28;20051;-81
2022/12/01 10:48:16;;;;;;;107.97;65.30;;;5.90;99.90;;;;;;5085570;28;20043;-81
2022/12/01 10:50:48;;;;;;;104.40;64.53;;;5.90;99.90;;;;;;5089565;28;20568;-81
2022/12/01 10:53:31;;;;;;;101.07;60.88;;;5.90;99.90;;;;;;5103255;28;20067;-81
2022/12/01 10:56:17;;;;;;;96.97;61.83;;;6.00;99.90;;;;;;5098479;28;20047;-81
2022/12/01 10:58:49;;;;;;;92.15;58.67;;;6.00;99.90;;;;;;5103043;28;20043;-81
2022/12/01 11:01:26;;;;;;;92.78;59.03;;;6.00;99.90;;;;;;5085290;28;20052;-81
2022/12/01 11:04:00;;;;;;;90.85;58.08;;;6.00;99.90;;;;;;5103052;28;20104;-81
2022/12/01 11:06:28;;;;;;;89.13;56.17;;;6.10;99.90;;;;;;5103599;28;20036;-81
2022/12/01 11:09:00;;;;;;;98.57;59.97;;;6.20;99.90;;;;;;5087406;28;20040;-81
2022/12/01 11:11:30;;;;;;;85.93;54.50;;;6.10;99.90;;;;;;5103188;28;20093;-80
2022/12/01 11:13:59;;;;;;;86.07;55.58;;;6.10;99.90;;;;;;5105137;28;20044;-81
2022/12/01 11:16:41;;;;;;;85.20;54.28;;;6.10;99.90;;;;;;5099211;28;20092;-82
2022/12/01 11:19:28;;;;;;;79.60;51.55;;;6.20;99.90;;;;;;5113141;27;20038;-79
2022/12/01 11:21:57;;;;;;;82.22;53.72;;;6.20;99.90;;;;;;5099707;28;20521;-79
2022/12/01 11:24:43;;;;;;;82.88;54.30;;;6.30;99.90;;;;;;5106232;27;20165;-79
2022/12/01 11:27:18;;;;;;;81.40;53.00;;;6.20;99.90;;;;;;5086626;28;20050;-80
2022/12/01 11:29:46;;;;;;;77.60;52.10;;;6.20;99.90;;;;;;5098703;28;20078;-79
2022/12/01 11:32:20;;;;;;;78.18;52.95;;;6.30;99.90;;;;;;5086898;28;20048;-79
2022/12/01 11:34:59;;;;;;;78.60;52.75;;;6.30;99.90;;;;;;5099599;28;20129;-79
2022/12/01 11:37:43;;;;;;;79.18;53.30;;;6.30;99.90;;;;;;5103948;28;20401;-81
2022/12/01 11:40:22;;;;;;;78.30;54.92;;;6.30;99.90;;;;;;5102299;28;20047;-81
2022/12/01 11:42:51;;;;;;;78.70;53.67;;;6.40;99.90;;;;;;5083008;28;20166;-81
2022/12/01 11:45:26;;;;;;;79.65;53.08;;;6.40;99.90;;;;;;5088668;28;20054;-81
2022/12/01 11:48:21;;;;;;;76.68;52.50;;;6.40;99.90;;;;;;5098203;28;20123;-81
2022/12/01 11:51:08;;;;;;;69.03;48.30;;;6.50;99.90;;;;;;5083640;28;20028;-81
2022/12/01 11:53:35;;;;;;;77.25;52.15;;;6.50;99.90;;;;;;5086859;28;20070;-81
2022/12/01 11:56:29;;;;;;;73.40;52.42;;;6.50;99.90;;;;;;5098079;28;21802;-81
2022/12/01 11:59:02;;;;;;;77.40;52.38;;;6.50;99.90;;;;;;5099866;28;20451;-81
2022/12/01 12:02:05;;;;;;;74.05;50.97;;;6.50;99.90;;;;;;5117699;27;20048;-79
2022/12/01 12:04:52;;;;;;;72.18;49.28;;;6.60;99.90;;;;;;5099741;28;20043;-79
2022/12/01 12:07:51;;;;;;;79.90;53.10;;;6.60;99.90;;;;;;5085088;28;20082;-80
2022/12/01 12:10:39;;;;;;;77.90;53.50;;;6.70;99.90;;;;;;5052544;28;20051;-79
2022/12/01 12:13:14;;;;;;;71.85;51.15;;;6.60;99.90;;;;;;5083331;28;20043;-79
2022/12/01 12:15:54;;;;;;;79.70;55.05;;;6.60;99.90;;;;;;5098473;27;20465;-78
2022/12/01 12:18:48;;;;;;;73.82;52.90;;;6.60;99.90;;;;;;5081616;27;20069;-79
2022/12/01 12:21:24;;;;;;;80.47;54.38;;;6.60;99.90;;;;;;5101362;28;20105;-79
2022/12/01 12:24:22;;;;;;;77.15;52.55;;;6.60;99.90;;;;;;5117958;27;20047;-78
2022/12/01 12:27:05;;;;;;;69.45;50.88;;;6.70;99.90;;;;;;5094270;28;20881;-79
2022/12/01 12:29:56;;;;;;;67.65;49.80;;;6.60;99.90;;;;;;5116604;27;20415;-79
2022/12/01 12:32:48;;;;;;;67.68;47.13;;;6.60;99.90;;;;;;5102380;28;20494;-79
2022/12/01 12:35:57;;;;;;;69.75;50.47;;;6.60;99.90;;;;;;5098445;28;20044;-79
2022/12/01 12:38:45;;;;;;;69.28;50.08;;;6.60;99.90;;;;;;5111162;27;20132;-79
2022/12/01 12:41:41;;;;;;;66.20;49.95;;;6.60;99.90;;;;;;5100040;28;20075;-79
2022/12/01 12:44:34;;;;;;;67.72;50.85;;;6.60;99.90;;;;;;5099757;28;20044;-79
2022/12/01 12:47:15;;;;;;;67.90;50.20;;;6.70;99.90;;;;;;5096255;28;20075;-79
2022/12/01 12:49:58;;;;;;;65.40;47.63;;;6.70;99.90;;;;;;5077570;28;20589;-79
2022/12/01 12:52:40;;;;;;;67.20;49.03;;;6.70;99.90;;;;;;5086556;28;20132;-79
2022/12/01 12:55:19;;;;;;;67.72;48.13;;;6.60;99.90;;;;;;5093148;28;20052;-79